Danos Z — D5HG8 — position and weather

sailwx.info

Track history (hours):
 
Tides and Currents Weather Stations Pressure Air Temp Water Temp Dewpoint Dewpoint Depression Visibility Wind Speed Wind Dir Waves Ship Positions

Danos Z

Last reported at 2018-Jul-14 06:22 UTC. Time now 2018-Jul-16 06:42 UTC.
Position N 36°18' E 015°22'.

Length 190 m; draft 10.3 m.

Type: Cargo ship. MMSI: 636016682.

Date/timePositionNaut miles runAvg speedWind from/ knotsBaromVisibWave heightAir tempDewpointWater temp
2018-Jul-14 06:22N 36°18' E 015°22'0 0.1
2018-Jul-14 05:57N 36°18' E 015°22'1 0.1
2018-Jul-13 21:12N 36°19' E 015°22'0 0.2
2018-Jul-13 20:52N 36°20' E 015°22'0 0.2
2018-Jul-13 20:17N 36°20' E 015°22'0 0.1
2018-Jul-13 19:59N 36°20' E 015°22'0 0.0
2018-Jul-13 18:55N 36°20' E 015°22'0 0.1
2018-Jul-13 18:30N 36°20' E 015°22'0 0.1
2018-Jul-13 18:00N 36°20' E 015°22'0 0.2
2018-Jul-13 15:02N 36°19' E 015°22'14 3.8
2018-Jul-13 11:23N 36°20' E 015°04'410.1
2018-Jul-13 11:00N 36°20' E 014°60'510.1
2018-Jul-13 10:31N 36°20' E 014°53'5 9.9
2018-Jul-13 10:00N 36°20' E 014°47'510.1
2018-Jul-13 09:30N 36°20' E 014°41'510.2
2018-Jul-13 09:00N 36°21' E 014°35'510.3
2018-Jul-13 08:31N 36°22' E 014°29'510.4
2018-Jul-13 08:00N 36°24' E 014°22'510.0
2018-Jul-13 07:30N 36°25' E 014°16'5 9.8
2018-Jul-13 07:00N 36°27' E 014°11'4 8.9
2018-Jul-13 06:30N 36°28' E 014°05'3 6.0
2018-Jul-13 06:00N 36°29' E 014°02'510.4
2018-Jul-13 05:30N 36°30' E 013°55'510.6
2018-Jul-13 05:00N 36°32' E 013°49'510.5
2018-Jul-13 04:30N 36°33' E 013°43'510.4
2018-Jul-13 04:00N 36°35' E 013°37'510.2
2018-Jul-13 03:30N 36°37' E 013°31'510.2
2018-Jul-13 03:00N 36°38' E 013°25'510.1
2018-Jul-13 02:28N 36°40' E 013°18'510.0
2018-Jul-13 02:00N 36°41' E 013°13'510.0
2018-Jul-13 01:30N 36°43' E 013°07'510.2
2018-Jul-13 01:00N 36°45' E 013°01'510.1
2018-Jul-13 00:30N 36°46' E 012°55'510.1
2018-Jul-13 00:00N 36°48' E 012°49'510.5
2018-Jul-12 23:30N 36°49' E 012°43'510.6
2018-Jul-12 23:01N 36°51' E 012°37'510.6
2018-Jul-12 22:30N 36°53' E 012°30'510.3
2018-Jul-12 22:00N 36°55' E 012°25'510.5
2018-Jul-12 21:30N 36°57' E 012°18'510.6
2018-Jul-12 21:00N 36°58' E 012°12'510.0
2018-Jul-12 20:31N 36°59' E 012°06'510.1
2018-Jul-12 20:01N 37°01' E 012°00'510.5
2018-Jul-12 19:30N 37°04' E 011°54'302 9.7
2018-Jul-11 12:32N 37°18' E 005°36'4 9.4
2018-Jul-11 12:06N 37°18' E 005°31'1 9.4
2018-Jul-11 11:58N 37°17' E 005°29'11010.4
2018-Jul-11 01:24N 37°06' E 003°12'5 9.8
2018-Jul-11 00:52N 37°05' E 003°05'5210.7
2018-Jul-10 20:00N 36°56' E 002°01'5 8.7
2018-Jul-10 19:25N 36°56' E 001°55'3 7.0
2018-Jul-10 18:59N 36°56' E 001°51'4010.2
2018-Jul-10 15:05N 36°48' E 001°03'110.9
2018-Jul-10 14:58N 36°48' E 001°01'2210.9
2018-Jul-10 12:56N 36°44' E 000°34'511.0
2018-Jul-10 12:30N 36°43' E 000°28'511.1
2018-Jul-10 12:00N 36°42' E 000°21'611.1
2018-Jul-10 11:30N 36°41' E 000°15'611.4
2018-Jul-10 11:00N 36°40' E 000°08'2811.1
2018-Jul-10 08:27N 36°36' W 000°27'510.2
2018-Jul-10 08:00N 36°35' W 000°33'510.2
2018-Jul-10 07:30N 36°34' W 000°39'510.1
2018-Jul-10 07:00N 36°33' W 000°45'710.2
2018-Jul-10 06:18N 36°32' W 000°54'310.2
2018-Jul-10 06:00N 36°31' W 000°58'510.1
2018-Jul-10 05:30N 36°31' W 001°04'610.1
2018-Jul-10 04:54N 36°30' W 001°12'410.0
2018-Jul-10 04:30N 36°29' W 001°16'19111.4
2018-Jul-09 11:40N 35°56' W 005°10'211.6
2018-Jul-09 11:28N 35°56' W 005°13'510.5
2018-Jul-09 11:00N 35°55' W 005°19'1 2.3
2018-Jul-09 10:29N 35°55' W 005°20'0 0.0
2018-Jul-09 09:59N 35°55' W 005°20'0 0.0
2018-Jul-09 09:29N 35°55' W 005°20'0 0.0
2018-Jul-09 08:59N 35°55' W 005°20'0 0.1
2018-Jul-09 08:29N 35°55' W 005°20'0 0.1
2018-Jul-09 07:59N 35°55' W 005°20'0 0.0
2018-Jul-09 07:29N 35°55' W 005°20'0 0.1
2018-Jul-09 06:59N 35°55' W 005°20'0 0.1
2018-Jul-09 06:29N 35°55' W 005°20'0 0.1
2018-Jul-09 05:59N 35°55' W 005°20'0 0.0
2018-Jul-09 05:28N 35°55' W 005°20'0 0.1
2018-Jul-09 04:58N 35°55' W 005°20'0 0.1
2018-Jul-09 04:28N 35°55' W 005°20'0 0.0
2018-Jul-09 03:58N 35°55' W 005°20'0 0.0
2018-Jul-09 03:28N 35°55' W 005°20'0 0.0
2018-Jul-09 02:58N 35°55' W 005°20'0 0.8
2018-Jul-09 02:30N 35°55' W 005°20'2 3.6
2018-Jul-09 02:00N 35°57' W 005°22'2 4.7
2018-Jul-09 01:30N 35°57' W 005°24'3 5.7
2018-Jul-09 01:00N 35°57' W 005°28'3 5.9
2018-Jul-09 00:30N 35°56' W 005°31'4 8.6
2018-Jul-09 00:00N 35°55' W 005°36'5 9.6
2018-Jul-08 23:28N 35°54' W 005°43'4 9.2
2018-Jul-08 23:01N 35°54' W 005°48'4 8.7
2018-Jul-08 22:30N 35°54' W 005°53'  
Track history (hours):
 
Tides and Currents Weather Stations Pressure Air Temp Water Temp Dewpoint Dewpoint Depression Visibility Wind Speed Wind Dir Waves Ship Positions

Danos Z

Last reported at 2018-Jul-14 06:22 UTC. Time now 2018-Jul-16 06:42 UTC.
Position N 36°18' E 015°22'.

Length 190 m; draft 10.3 m.

Type: Cargo ship. MMSI: 636016682.

Date/timePositionNaut miles runAvg speedWind from/ knotsBaromVisibWave heightAir tempDewpointWater temp
2018-Jul-14 06:22N 36°18' E 015°22'0 0.1
2018-Jul-14 05:57N 36°18' E 015°22'1 0.1
2018-Jul-13 21:12N 36°19' E 015°22'0 0.2
2018-Jul-13 20:52N 36°20' E 015°22'0 0.2
2018-Jul-13 20:17N 36°20' E 015°22'0 0.1
2018-Jul-13 19:59N 36°20' E 015°22'0 0.0
2018-Jul-13 18:55N 36°20' E 015°22'0 0.1
2018-Jul-13 18:30N 36°20' E 015°22'0 0.1
2018-Jul-13 18:00N 36°20' E 015°22'0 0.2
2018-Jul-13 15:02N 36°19' E 015°22'14 3.8
2018-Jul-13 11:23N 36°20' E 015°04'410.1
2018-Jul-13 11:00N 36°20' E 014°60'510.1
2018-Jul-13 10:31N 36°20' E 014°53'5 9.9
2018-Jul-13 10:00N 36°20' E 014°47'510.1
2018-Jul-13 09:30N 36°20' E 014°41'510.2
2018-Jul-13 09:00N 36°21' E 014°35'510.3
2018-Jul-13 08:31N 36°22' E 014°29'510.4
2018-Jul-13 08:00N 36°24' E 014°22'510.0
2018-Jul-13 07:30N 36°25' E 014°16'5 9.8
2018-Jul-13 07:00N 36°27' E 014°11'4 8.9
2018-Jul-13 06:30N 36°28' E 014°05'3 6.0
2018-Jul-13 06:00N 36°29' E 014°02'510.4
2018-Jul-13 05:30N 36°30' E 013°55'510.6
2018-Jul-13 05:00N 36°32' E 013°49'510.5
2018-Jul-13 04:30N 36°33' E 013°43'510.4
2018-Jul-13 04:00N 36°35' E 013°37'510.2
2018-Jul-13 03:30N 36°37' E 013°31'510.2
2018-Jul-13 03:00N 36°38' E 013°25'510.1
2018-Jul-13 02:28N 36°40' E 013°18'510.0
2018-Jul-13 02:00N 36°41' E 013°13'510.0
2018-Jul-13 01:30N 36°43' E 013°07'510.2
2018-Jul-13 01:00N 36°45' E 013°01'510.1
2018-Jul-13 00:30N 36°46' E 012°55'510.1
2018-Jul-13 00:00N 36°48' E 012°49'510.5
2018-Jul-12 23:30N 36°49' E 012°43'510.6
2018-Jul-12 23:01N 36°51' E 012°37'510.6
2018-Jul-12 22:30N 36°53' E 012°30'510.3
2018-Jul-12 22:00N 36°55' E 012°25'510.5
2018-Jul-12 21:30N 36°57' E 012°18'510.6
2018-Jul-12 21:00N 36°58' E 012°12'510.0
2018-Jul-12 20:31N 36°59' E 012°06'510.1
2018-Jul-12 20:01N 37°01' E 012°00'510.5
2018-Jul-12 19:30N 37°04' E 011°54'302 9.7
2018-Jul-11 12:32N 37°18' E 005°36'4 9.4
2018-Jul-11 12:06N 37°18' E 005°31'1 9.4
2018-Jul-11 11:58N 37°17' E 005°29'11010.4
2018-Jul-11 01:24N 37°06' E 003°12'5 9.8
2018-Jul-11 00:52N 37°05' E 003°05'5210.7
2018-Jul-10 20:00N 36°56' E 002°01'5 8.7
2018-Jul-10 19:25N 36°56' E 001°55'3 7.0
2018-Jul-10 18:59N 36°56' E 001°51'4010.2
2018-Jul-10 15:05N 36°48' E 001°03'110.9
2018-Jul-10 14:58N 36°48' E 001°01'2210.9
2018-Jul-10 12:56N 36°44' E 000°34'511.0
2018-Jul-10 12:30N 36°43' E 000°28'511.1
2018-Jul-10 12:00N 36°42' E 000°21'611.1
2018-Jul-10 11:30N 36°41' E 000°15'611.4
2018-Jul-10 11:00N 36°40' E 000°08'2811.1
2018-Jul-10 08:27N 36°36' W 000°27'510.2
2018-Jul-10 08:00N 36°35' W 000°33'510.2
2018-Jul-10 07:30N 36°34' W 000°39'510.1
2018-Jul-10 07:00N 36°33' W 000°45'710.2
2018-Jul-10 06:18N 36°32' W 000°54'310.2
2018-Jul-10 06:00N 36°31' W 000°58'510.1
2018-Jul-10 05:30N 36°31' W 001°04'610.1
2018-Jul-10 04:54N 36°30' W 001°12'410.0
2018-Jul-10 04:30N 36°29' W 001°16'19111.4
2018-Jul-09 11:40N 35°56' W 005°10'211.6
2018-Jul-09 11:28N 35°56' W 005°13'510.5
2018-Jul-09 11:00N 35°55' W 005°19'1 2.3
2018-Jul-09 10:29N 35°55' W 005°20'0 0.0
2018-Jul-09 09:59N 35°55' W 005°20'0 0.0
2018-Jul-09 09:29N 35°55' W 005°20'0 0.0
2018-Jul-09 08:59N 35°55' W 005°20'0 0.1
2018-Jul-09 08:29N 35°55' W 005°20'0 0.1
2018-Jul-09 07:59N 35°55' W 005°20'0 0.0
2018-Jul-09 07:29N 35°55' W 005°20'0 0.1
2018-Jul-09 06:59N 35°55' W 005°20'0 0.1
2018-Jul-09 06:29N 35°55' W 005°20'0 0.1
2018-Jul-09 05:59N 35°55' W 005°20'0 0.0
2018-Jul-09 05:28N 35°55' W 005°20'0 0.1
2018-Jul-09 04:58N 35°55' W 005°20'0 0.1
2018-Jul-09 04:28N 35°55' W 005°20'0 0.0
2018-Jul-09 03:58N 35°55' W 005°20'0 0.0
2018-Jul-09 03:28N 35°55' W 005°20'0 0.0
2018-Jul-09 02:58N 35°55' W 005°20'0 0.8
2018-Jul-09 02:30N 35°55' W 005°20'2 3.6
2018-Jul-09 02:00N 35°57' W 005°22'2 4.7
2018-Jul-09 01:30N 35°57' W 005°24'3 5.7
2018-Jul-09 01:00N 35°57' W 005°28'3 5.9
2018-Jul-09 00:30N 35°56' W 005°31'4 8.6
2018-Jul-09 00:00N 35°55' W 005°36'5 9.6
2018-Jul-08 23:28N 35°54' W 005°43'4 9.2
2018-Jul-08 23:01N 35°54' W 005°48'4 8.7
2018-Jul-08 22:30N 35°54' W 005°53'  

Dump ship's entire track history